createdAt,value
2017-10-15T00:00:22.045Z,13.34
2017-10-15T00:01:32.538Z,13.36
2017-10-15T00:02:42.710Z,13.31
2017-10-15T00:03:52.894Z,13.29
2017-10-15T00:05:03.426Z,13.31
2017-10-15T00:06:14.686Z,13.23
2017-10-15T00:07:25.237Z,13.23
2017-10-15T00:08:35.730Z,13.22
2017-10-15T00:09:46.453Z,13.26
2017-10-15T00:10:57.051Z,13.18
2017-10-15T00:12:07.559Z,13.16
2017-10-15T00:13:18.062Z,13.18
2017-10-15T00:14:28.680Z,13.11
2017-10-15T00:15:39.186Z,13.12
2017-10-15T00:16:49.695Z,13.13
2017-10-15T00:18:00.199Z,13.11
2017-10-15T00:19:10.747Z,13.13
2017-10-15T00:20:21.254Z,13.11
2017-10-15T00:21:31.761Z,13.12
2017-10-15T00:22:42.338Z,13.16
2017-10-15T00:23:52.817Z,13.18
2017-10-15T00:25:03.326Z,13.15
2017-10-15T00:26:13.798Z,13.08
2017-10-15T00:27:24.902Z,13.11
2017-10-15T00:28:35.888Z,13.01
2017-10-15T00:29:47.139Z,13.03
2017-10-15T00:30:57.649Z,13.03
2017-10-15T00:32:08.126Z,13.09
2017-10-15T00:33:18.595Z,13.04
2017-10-15T00:34:29.096Z,13.12
2017-10-15T00:35:39.575Z,13.06
2017-10-15T00:36:50.064Z,13.06
2017-10-15T00:38:00.534Z,13.12
2017-10-15T00:39:11.141Z,13.04
2017-10-15T00:40:21.638Z,13.01
2017-10-15T00:41:32.112Z,13.12
2017-10-15T00:42:42.713Z,13.01
2017-10-15T00:43:52.772Z,13
2017-10-15T00:45:03.255Z,13.09
2017-10-15T00:46:13.846Z,13.04
2017-10-15T00:47:24.345Z,13.08
2017-10-15T00:48:34.871Z,13.01
2017-10-15T00:49:45.352Z,12.97
2017-10-15T00:50:55.873Z,13.01
2017-10-15T00:52:06.398Z,13.09
2017-10-15T00:53:16.651Z,12.97
2017-10-15T00:54:27.128Z,13.04
2017-10-15T00:55:37.625Z,13.11
2017-10-15T00:56:48.123Z,13.03
2017-10-15T00:57:58.612Z,13.04
2017-10-15T00:59:09.106Z,13.01
2017-10-15T01:00:19.604Z,13.08
2017-10-15T01:01:30.181Z,13.04
2017-10-15T01:02:40.652Z,13.06
2017-10-15T01:03:51.222Z,13.08
2017-10-15T01:05:01.701Z,13.12
2017-10-15T01:06:12.172Z,13.11
2017-10-15T01:07:22.644Z,13.04
2017-10-15T01:08:33.137Z,13.09
2017-10-15T01:09:43.646Z,13.09
2017-10-15T01:10:54.129Z,13.09
2017-10-15T01:12:04.632Z,13
2017-10-15T01:13:15.096Z,13.01
2017-10-15T01:14:25.607Z,12.97
2017-10-15T01:15:36.166Z,12.97
2017-10-15T01:16:46.662Z,13
2017-10-15T01:17:57.143Z,13.06
2017-10-15T01:19:07.741Z,13.01
2017-10-15T01:20:18.295Z,13.01
2017-10-15T01:21:28.831Z,12.96
2017-10-15T01:22:39.303Z,13
2017-10-15T01:23:49.787Z,12.9
2017-10-15T01:25:00.325Z,12.93
2017-10-15T01:26:10.473Z,12.85
2017-10-15T01:27:20.955Z,12.8
2017-10-15T01:28:31.431Z,12.9
2017-10-15T01:29:41.930Z,12.84
2017-10-15T01:30:52.606Z,12.8
2017-10-15T01:32:03.134Z,12.84
2017-10-15T01:33:13.793Z,12.8
2017-10-15T01:34:24.018Z,12.8
2017-10-15T01:35:34.103Z,12.81
2017-10-15T01:36:44.600Z,12.85
2017-10-15T01:37:55.103Z,12.81
2017-10-15T01:39:05.659Z,12.85
2017-10-15T01:40:16.243Z,12.88
2017-10-15T01:41:26.751Z,12.84
2017-10-15T01:42:37.262Z,12.81
2017-10-15T01:43:47.793Z,12.84
2017-10-15T01:44:59.239Z,12.89
2017-10-15T01:46:09.812Z,12.84
2017-10-15T01:47:20.284Z,12.89
2017-10-15T01:48:30.818Z,12.85
2017-10-15T01:49:41.016Z,12.84
2017-10-15T01:50:51.727Z,12.8
2017-10-15T01:52:02.227Z,12.82
2017-10-15T01:53:12.708Z,12.74
2017-10-15T01:54:23.193Z,12.74
2017-10-15T01:55:33.737Z,12.74
2017-10-15T01:56:44.206Z,12.77
2017-10-15T01:57:54.666Z,12.7
2017-10-15T01:59:05.202Z,12.7
2017-10-15T02:00:15.695Z,12.71
2017-10-15T02:01:25.890Z,12.7
2017-10-15T02:02:36.386Z,12.7
2017-10-15T02:03:46.871Z,12.7
2017-10-15T02:04:57.590Z,12.72
2017-10-15T02:06:08.062Z,12.68
2017-10-15T02:07:18.780Z,12.7
2017-10-15T02:08:29.286Z,12.6
2017-10-15T02:09:39.782Z,12.63
2017-10-15T02:10:50.255Z,12.7
2017-10-15T02:12:00.425Z,12.68
2017-10-15T02:13:10.915Z,12.63
2017-10-15T02:14:21.426Z,12.63
2017-10-15T02:15:31.919Z,12.66
2017-10-15T02:16:42.417Z,12.63
2017-10-15T02:17:52.575Z,12.56
2017-10-15T02:19:03.275Z,12.59
2017-10-15T02:20:13.755Z,12.55
2017-10-15T02:21:24.237Z,12.55
2017-10-15T02:22:35.699Z,12.62
2017-10-15T02:23:46.212Z,12.56
2017-10-15T02:24:56.952Z,12.66
2017-10-15T02:26:07.495Z,12.56
2017-10-15T02:27:17.963Z,12.66
2017-10-15T02:28:28.462Z,12.57
2017-10-15T02:29:38.589Z,12.57
2017-10-15T02:30:49.079Z,12.59
2017-10-15T02:31:59.671Z,12.6
2017-10-15T02:33:10.270Z,12.63
2017-10-15T02:34:20.769Z,12.63
2017-10-15T02:35:31.339Z,12.55
2017-10-15T02:36:41.848Z,12.55
2017-10-15T02:37:52.358Z,12.59
2017-10-15T02:39:02.838Z,12.52
2017-10-15T02:40:13.329Z,12.53
2017-10-15T02:41:23.827Z,12.47
2017-10-15T02:42:34.357Z,12.5
2017-10-15T02:43:44.847Z,12.44
2017-10-15T02:44:55.335Z,12.52
2017-10-15T02:46:05.827Z,12.45
2017-10-15T02:47:16.349Z,12.45
2017-10-15T02:48:26.827Z,12.44
2017-10-15T02:49:37.292Z,12.39
2017-10-15T02:50:47.820Z,12.37
2017-10-15T02:51:58.321Z,12.37
2017-10-15T02:53:08.829Z,12.42
2017-10-15T02:54:19.306Z,12.44
2017-10-15T02:55:29.828Z,12.38
2017-10-15T02:56:40.288Z,12.35
2017-10-15T02:57:50.809Z,12.39
2017-10-15T02:59:01.303Z,12.23
2017-10-15T03:00:11.875Z,12.26
2017-10-15T03:01:22.386Z,12.31
2017-10-15T03:02:32.872Z,12.24
2017-10-15T03:03:43.400Z,12.31
2017-10-15T03:04:53.861Z,12.23
2017-10-15T03:06:04.376Z,12.15
2017-10-15T03:07:14.842Z,12.24
2017-10-15T03:08:25.404Z,12.23
2017-10-15T03:09:35.882Z,12.2
2017-10-15T03:10:46.360Z,12.19
2017-10-15T03:11:56.974Z,12.16
2017-10-15T03:13:07.462Z,12.26
2017-10-15T03:14:17.968Z,12.24
2017-10-15T03:15:28.472Z,12.24
2017-10-15T03:16:38.990Z,12.26
2017-10-15T03:17:49.467Z,12.15
2017-10-15T03:18:59.664Z,12.16
2017-10-15T03:20:10.150Z,12.08
2017-10-15T03:21:20.741Z,12.07
2017-10-15T03:22:31.216Z,12.07
2017-10-15T03:23:41.742Z,12.09
2017-10-15T03:24:51.479Z,12.05
2017-10-15T03:26:01.977Z,12.13
2017-10-15T03:27:12.472Z,12.08
2017-10-15T03:28:23.091Z,12.04
2017-10-15T03:29:33.238Z,12.11
2017-10-15T03:30:43.721Z,12.02
2017-10-15T03:31:54.226Z,12.01
2017-10-15T03:33:04.749Z,12.07
2017-10-15T03:34:15.232Z,12.05
2017-10-15T03:35:25.725Z,12.08
2017-10-15T03:36:36.239Z,12.09
2017-10-15T03:37:46.382Z,12.07
2017-10-15T03:38:56.973Z,12.16
2017-10-15T03:40:07.482Z,12.17
2017-10-15T03:41:18.004Z,12.07
2017-10-15T03:42:28.520Z,12.13
2017-10-15T03:43:39.020Z,12.07
2017-10-15T03:44:49.587Z,12.08
2017-10-15T03:46:00.135Z,12.09
2017-10-15T03:47:10.615Z,11.99
2017-10-15T03:48:21.071Z,12.08
2017-10-15T03:49:31.569Z,12.07
2017-10-15T03:50:42.039Z,12.02
2017-10-15T03:51:52.539Z,12.04
2017-10-15T03:53:03.033Z,12.07
2017-10-15T03:54:13.602Z,12.08
2017-10-15T03:55:24.321Z,12.08
2017-10-15T03:56:34.803Z,12.17
2017-10-15T03:57:45.531Z,12.08
2017-10-15T03:58:56.013Z,12.05
2017-10-15T04:00:06.502Z,12.09
2017-10-15T04:01:16.658Z,12.07
2017-10-15T04:02:27.277Z,12.07
2017-10-15T04:03:37.333Z,12.09
2017-10-15T04:04:47.935Z,12.05
2017-10-15T04:05:58.441Z,12.09
2017-10-15T04:07:08.819Z,12.09
2017-10-15T04:08:19.330Z,12.02
2017-10-15T04:09:29.809Z,12.01
2017-10-15T04:10:40.357Z,11.99
2017-10-15T04:11:50.836Z,12.07
2017-10-15T04:13:01.331Z,12.01
2017-10-15T04:14:11.826Z,12.05
2017-10-15T04:15:22.291Z,11.99
2017-10-15T04:16:32.790Z,11.89
2017-10-15T04:17:43.256Z,11.94
2017-10-15T04:18:53.764Z,11.89
2017-10-15T04:20:04.266Z,11.84
2017-10-15T04:21:14.774Z,11.91
2017-10-15T04:22:25.247Z,11.84
2017-10-15T04:23:35.720Z,11.94
2017-10-15T04:24:46.210Z,11.8
2017-10-15T04:25:56.721Z,11.8
2017-10-15T04:27:07.241Z,11.72
2017-10-15T04:28:17.819Z,11.8
2017-10-15T04:29:28.292Z,11.71
2017-10-15T04:30:38.821Z,11.8
2017-10-15T04:31:49.283Z,11.74
2017-10-15T04:32:59.754Z,11.72
2017-10-15T04:34:10.224Z,11.72
2017-10-15T04:35:20.708Z,11.65
2017-10-15T04:36:31.237Z,11.62
2017-10-15T04:37:41.396Z,11.65
2017-10-15T04:38:51.934Z,11.59
2017-10-15T04:40:02.112Z,11.59
2017-10-15T04:41:12.629Z,11.61
2017-10-15T04:42:23.100Z,11.61
2017-10-15T04:43:33.575Z,11.59
2017-10-15T04:44:44.038Z,11.61
2017-10-15T04:45:55.497Z,11.64
2017-10-15T04:47:06.086Z,11.59
2017-10-15T04:48:16.607Z,11.68
2017-10-15T04:49:27.076Z,11.62
2017-10-15T04:50:37.583Z,11.58
2017-10-15T04:51:48.079Z,11.64
2017-10-15T04:52:58.235Z,11.65
2017-10-15T04:54:08.817Z,11.59
2017-10-15T04:55:19.298Z,11.59
2017-10-15T04:56:29.795Z,11.61
2017-10-15T04:57:40.265Z,11.59
2017-10-15T04:58:50.775Z,11.58
2017-10-15T05:00:01.281Z,11.61
2017-10-15T05:01:11.808Z,11.61
2017-10-15T05:02:22.287Z,11.57
2017-10-15T05:03:32.438Z,11.57
2017-10-15T05:04:42.528Z,11.61
2017-10-15T05:05:52.996Z,11.58
2017-10-15T05:07:03.454Z,11.57
2017-10-15T05:08:13.973Z,11.61
2017-10-15T05:09:24.452Z,11.59
2017-10-15T05:10:34.913Z,11.61
2017-10-15T05:11:45.381Z,11.57
2017-10-15T05:12:55.855Z,11.59
2017-10-15T05:14:06.426Z,11.45
2017-10-15T05:15:16.905Z,11.57
2017-10-15T05:16:27.407Z,11.58
2017-10-15T05:17:37.944Z,11.59
2017-10-15T05:18:48.456Z,11.62
2017-10-15T05:19:58.947Z,11.66
2017-10-15T05:21:09.095Z,11.61
2017-10-15T05:22:19.574Z,11.59
2017-10-15T05:23:30.086Z,11.58
2017-10-15T05:24:40.825Z,11.61
2017-10-15T05:25:51.288Z,11.61
2017-10-15T05:27:01.764Z,11.61
2017-10-15T05:28:12.311Z,11.59
2017-10-15T05:29:22.792Z,11.43
2017-10-15T05:30:33.295Z,11.42
2017-10-15T05:31:43.791Z,11.34
2017-10-15T05:32:54.325Z,11.43
2017-10-15T05:34:05.793Z,11.35
2017-10-15T05:35:16.299Z,11.31
2017-10-15T05:36:26.874Z,11.23
2017-10-15T05:37:37.364Z,11.12
2017-10-15T05:38:47.832Z,11.09
2017-10-15T05:39:58.327Z,10.95
2017-10-15T05:41:08.824Z,10.92
2017-10-15T05:42:19.550Z,10.94
2017-10-15T05:43:30.029Z,10.92
2017-10-15T05:44:40.547Z,10.84
2017-10-15T05:45:51.017Z,10.9
2017-10-15T05:47:01.516Z,10.94
2017-10-15T05:48:11.997Z,10.88
2017-10-15T05:49:22.466Z,10.94
2017-10-15T05:50:32.952Z,10.91
2017-10-15T05:51:43.472Z,11.06
2017-10-15T05:52:53.635Z,11.17
2017-10-15T05:54:04.116Z,11.2
2017-10-15T05:55:14.598Z,11.16
2017-10-15T05:56:25.115Z,11.35
2017-10-15T05:57:35.606Z,11.35
2017-10-15T05:58:47.698Z,11.4
2017-10-15T05:59:58.285Z,11.38
2017-10-15T06:01:08.775Z,11.39
2017-10-15T06:02:19.255Z,11.46
2017-10-15T06:03:29.721Z,11.5
2017-10-15T06:04:39.823Z,11.45
2017-10-15T06:05:50.304Z,11.45
2017-10-15T06:07:00.764Z,11.46
2017-10-15T06:08:11.292Z,11.53
2017-10-15T06:09:21.783Z,11.57
2017-10-15T06:10:32.264Z,11.59
2017-10-15T06:11:42.780Z,11.64
2017-10-15T06:12:53.250Z,11.58
2017-10-15T06:14:03.720Z,11.61
2017-10-15T06:15:14.214Z,11.64
2017-10-15T06:16:24.743Z,11.62
2017-10-15T06:17:35.229Z,11.61
2017-10-15T06:18:45.723Z,11.57
2017-10-15T06:19:56.251Z,11.61
2017-10-15T06:21:06.745Z,11.58
2017-10-15T06:22:17.235Z,11.62
2017-10-15T06:23:27.710Z,11.61
2017-10-15T06:24:38.225Z,11.72
2017-10-15T06:25:48.720Z,11.79
2017-10-15T06:26:59.195Z,11.74
2017-10-15T06:28:09.680Z,11.86
2017-10-15T06:29:19.862Z,11.79
2017-10-15T06:30:31.358Z,11.79
2017-10-15T06:31:41.862Z,11.91
2017-10-15T06:32:52.365Z,11.89
2017-10-15T06:34:03.029Z,11.86
2017-10-15T06:35:13.557Z,11.83
2017-10-15T06:36:24.026Z,11.79
2017-10-15T06:37:34.549Z,11.87
2017-10-15T06:38:45.075Z,11.89
2017-10-15T06:39:55.543Z,11.89
2017-10-15T06:41:06.130Z,11.86
2017-10-15T06:42:16.640Z,11.84
2017-10-15T06:43:27.145Z,11.94
2017-10-15T06:44:37.214Z,11.87
2017-10-15T06:45:47.794Z,12.02
2017-10-15T06:46:58.282Z,11.94
2017-10-15T06:48:08.975Z,12.04
2017-10-15T06:49:19.455Z,12.11
2017-10-15T06:50:30.016Z,12.09
2017-10-15T06:51:41.513Z,12.08
2017-10-15T06:52:52.009Z,12.13
2017-10-15T06:54:02.501Z,12.15
2017-10-15T06:55:13.001Z,12.38
2017-10-15T06:56:23.181Z,12.38
2017-10-15T06:57:33.671Z,12.6
2017-10-15T06:58:44.168Z,12.64
2017-10-15T06:59:54.661Z,12.78
2017-10-15T07:01:05.230Z,13
2017-10-15T07:02:15.750Z,13.19
2017-10-15T07:03:26.281Z,13.41
2017-10-15T07:04:36.802Z,13.81
2017-10-15T07:05:47.289Z,14.31
2017-10-15T07:06:57.777Z,15.45
2017-10-15T07:08:08.307Z,16.47
2017-10-15T07:09:18.857Z,17.57
2017-10-15T07:10:29.346Z,18.42
2017-10-15T07:11:39.949Z,19.25
2017-10-15T07:12:50.448Z,20
2017-10-15T07:14:00.991Z,20.76
2017-10-15T07:15:11.602Z,21.22
2017-10-15T07:16:22.105Z,21.72
2017-10-15T07:17:32.613Z,22.24
2017-10-15T07:18:43.100Z,22.64
2017-10-15T07:19:53.590Z,23.02
2017-10-15T07:21:04.092Z,23.2
2017-10-15T07:22:14.620Z,23.33
2017-10-15T07:23:25.128Z,23.64
2017-10-15T07:24:35.641Z,23.77
2017-10-15T07:25:46.288Z,24.06
2017-10-15T07:26:56.778Z,24.34
2017-10-15T07:28:07.326Z,24.53
2017-10-15T07:29:17.843Z,24.72
2017-10-15T07:30:28.336Z,24.85
2017-10-15T07:31:38.857Z,25.05
2017-10-15T07:32:49.357Z,25.19
2017-10-15T07:33:59.659Z,25.17
2017-10-15T07:35:10.078Z,25.25
2017-10-15T07:36:20.710Z,25.36
2017-10-15T07:37:31.221Z,25.37
2017-10-15T07:38:41.823Z,25.54
2017-10-15T07:39:52.029Z,25.68
2017-10-15T07:41:02.533Z,25.64
2017-10-15T07:42:13.040Z,25.73
2017-10-15T07:43:23.259Z,25.9
2017-10-15T07:45:45.890Z,26.07
2017-10-15T07:46:56.406Z,26.19
2017-10-15T07:48:07.143Z,26.33
2017-10-15T07:49:17.720Z,26.33
2017-10-15T07:50:28.221Z,26.36
2017-10-15T07:51:38.788Z,26.49
2017-10-15T07:52:50.363Z,26.53
2017-10-15T07:54:00.873Z,26.7
2017-10-15T07:55:11.392Z,26.83
2017-10-15T07:56:21.932Z,26.99
2017-10-15T07:57:32.109Z,27.12
2017-10-15T07:58:42.741Z,27.39
2017-10-15T07:59:53.237Z,27.43
2017-10-15T08:01:03.794Z,27.49
2017-10-15T08:02:14.296Z,27.49
2017-10-15T08:03:24.803Z,27.74
2017-10-15T08:04:35.324Z,27.95
2017-10-15T08:05:45.838Z,28.04
2017-10-15T08:06:56.368Z,28.17
2017-10-15T08:08:07.082Z,28.45
2017-10-15T08:09:17.595Z,28.29
2017-10-15T08:10:28.100Z,28.41
2017-10-15T08:11:38.660Z,28.67
2017-10-15T08:12:49.318Z,28.76
2017-10-15T08:13:59.834Z,28.77
2017-10-15T08:15:10.413Z,29.01
2017-10-15T08:16:21.123Z,29.07
2017-10-15T08:17:31.672Z,29.18
2017-10-15T08:18:41.836Z,29.39
2017-10-15T08:19:52.344Z,29.47
2017-10-15T08:21:03.157Z,29.6
2017-10-15T08:22:14.096Z,29.65
2017-10-15T08:23:24.712Z,29.75
2017-10-15T08:27:02.154Z,30.25
2017-10-15T08:28:12.662Z,30.41
2017-10-15T08:29:23.188Z,30.6
2017-10-15T08:30:33.689Z,30.6
2017-10-15T08:31:44.193Z,30.61
2017-10-15T08:32:54.694Z,30.72
2017-10-15T08:34:05.229Z,30.74
2017-10-15T08:35:15.799Z,30.7
2017-10-15T08:36:26.325Z,30.72
2017-10-15T08:37:36.889Z,30.78
2017-10-15T08:38:47.505Z,30.9
2017-10-15T08:39:58.022Z,30.96
2017-10-15T08:41:08.545Z,31.04
2017-10-15T08:42:19.049Z,31.27
2017-10-15T08:43:29.536Z,31.35
2017-10-15T08:44:41.045Z,31.34
2017-10-15T08:45:51.556Z,31.38
2017-10-15T08:47:02.097Z,31.4
2017-10-15T08:48:12.611Z,31.37
2017-10-15T08:49:23.141Z,31.38
2017-10-15T08:50:33.727Z,31.41
2017-10-15T08:51:44.247Z,31.51
2017-10-15T08:52:54.788Z,31.53
2017-10-15T08:54:05.301Z,31.61
2017-10-15T08:55:15.802Z,31.6
2017-10-15T08:56:26.334Z,31.66
2017-10-15T08:57:36.882Z,31.66
2017-10-15T08:58:47.476Z,31.75
2017-10-15T08:59:58.003Z,31.72
2017-10-15T09:01:08.636Z,31.58
2017-10-15T09:02:19.168Z,31.66
2017-10-15T09:03:29.676Z,31.63
2017-10-15T09:04:39.855Z,31.6
2017-10-15T09:05:50.543Z,31.58
2017-10-15T09:07:01.108Z,31.66
2017-10-15T09:08:11.635Z,31.61
2017-10-15T09:09:22.225Z,31.54
2017-10-15T09:10:32.764Z,31.5
2017-10-15T09:11:43.321Z,31.51
2017-10-15T09:12:53.847Z,31.53
2017-10-15T09:14:04.430Z,31.54
2017-10-15T09:15:14.927Z,31.4
2017-10-15T09:16:25.487Z,31.27
2017-10-15T09:17:36.003Z,31.22
2017-10-15T09:18:46.644Z,31.09
2017-10-15T09:19:57.242Z,31
2017-10-15T09:21:07.749Z,30.9
2017-10-15T09:22:18.253Z,30.88
2017-10-15T09:23:28.418Z,30.85
2017-10-15T09:24:38.907Z,30.79
2017-10-15T09:25:49.451Z,30.82
2017-10-15T09:26:59.944Z,30.86
2017-10-15T09:28:10.496Z,30.9
2017-10-15T09:29:21.092Z,31.01
2017-10-15T09:30:31.637Z,31.09
2017-10-15T09:31:42.233Z,31.07
2017-10-15T09:32:52.821Z,30.97
2017-10-15T09:34:03.396Z,30.93
2017-10-15T09:35:13.904Z,30.9
2017-10-15T09:36:24.422Z,30.9
2017-10-15T09:37:34.934Z,30.88
2017-10-15T09:38:45.456Z,30.6
2017-10-15T09:39:55.825Z,30.48
2017-10-15T09:41:06.357Z,30.39
2017-10-15T09:42:16.877Z,30.37
2017-10-15T09:43:27.408Z,30.14
2017-10-15T09:44:37.983Z,30.02
2017-10-15T09:45:48.561Z,29.88
2017-10-15T09:46:59.133Z,29.69
2017-10-15T09:48:09.704Z,29.66
2017-10-15T09:49:20.335Z,29.58
2017-10-15T09:50:30.887Z,29.58
2017-10-15T09:51:41.622Z,29.67
2017-10-15T09:52:52.150Z,29.89
2017-10-15T09:54:02.721Z,29.99
2017-10-15T09:55:13.270Z,30
2017-10-15T09:56:23.495Z,29.76
2017-10-15T09:57:34.051Z,29.75
2017-10-15T09:58:44.347Z,29.65
2017-10-15T09:59:55.031Z,29.58
2017-10-15T10:01:05.558Z,29.53
2017-10-15T10:02:16.108Z,29.51
2017-10-15T10:03:26.775Z,29.5
2017-10-15T10:04:37.324Z,29.47
2017-10-15T10:05:47.856Z,29.4
2017-10-15T10:06:58.433Z,29.31
2017-10-15T10:08:09.171Z,29.31
2017-10-15T10:09:19.686Z,29.33
2017-10-15T10:10:30.271Z,29.39
2017-10-15T10:11:40.829Z,29.51
2017-10-15T10:12:51.449Z,29.51
2017-10-15T10:14:01.967Z,29.54
2017-10-15T10:15:12.534Z,29.6
2017-10-15T10:16:23.265Z,29.65
2017-10-15T10:17:33.824Z,29.63
2017-10-15T10:18:44.412Z,29.72
2017-10-15T10:19:54.935Z,29.75
2017-10-15T10:21:06.451Z,29.95
2017-10-15T10:22:16.985Z,30.1
2017-10-15T10:23:27.494Z,30.19
2017-10-15T10:24:38.025Z,30.37
2017-10-15T10:25:48.571Z,30.35
2017-10-15T10:26:59.192Z,30.35
2017-10-15T10:28:09.459Z,30.3
2017-10-15T10:29:20.041Z,30.38
2017-10-15T10:30:32.745Z,30.48
2017-10-15T10:31:46.851Z,30.57
2017-10-15T10:32:59.823Z,30.59
2017-10-15T10:34:10.364Z,30.33
2017-10-15T10:35:20.921Z,30.38
2017-10-15T10:36:31.450Z,30.25
2017-10-15T10:37:41.992Z,30.07
2017-10-15T10:38:52.611Z,29.92
2017-10-15T10:40:03.171Z,29.82
2017-10-15T10:41:13.705Z,30.1
2017-10-15T10:42:24.274Z,30.22
2017-10-15T10:43:34.833Z,30.3
2017-10-15T10:44:45.384Z,30.29
2017-10-15T10:45:55.955Z,30.26
2017-10-15T10:47:05.855Z,30.37
2017-10-15T10:48:16.412Z,30.41
2017-10-15T10:49:26.975Z,30.37
2017-10-15T10:50:37.610Z,30.25
2017-10-15T10:51:48.140Z,30.07
2017-10-15T10:52:58.736Z,29.94
2017-10-15T10:54:09.353Z,29.87
2017-10-15T10:55:19.571Z,29.77
2017-10-15T10:56:30.095Z,29.54
2017-10-15T10:57:40.349Z,29.45
2017-10-15T10:58:50.927Z,29.54
2017-10-15T11:00:01.271Z,29.16
2017-10-15T11:01:11.821Z,28.98
2017-10-15T11:02:22.464Z,28.69
2017-10-15T11:03:32.691Z,28.53
2017-10-15T11:04:43.219Z,28.34
2017-10-15T11:05:53.762Z,28.31
2017-10-15T11:07:04.313Z,28.49
2017-10-15T11:08:14.839Z,28.51
2017-10-15T11:09:25.424Z,28.49
2017-10-15T11:10:35.970Z,28.49
2017-10-15T11:11:46.519Z,28.35
2017-10-15T11:12:57.072Z,28.24
2017-10-15T11:14:07.614Z,28.05
2017-10-15T11:15:18.139Z,27.83
2017-10-15T11:16:28.734Z,27.92
2017-10-15T11:17:38.960Z,27.98
2017-10-15T11:18:49.507Z,27.76
2017-10-15T11:20:00.042Z,27.74
2017-10-15T11:21:10.597Z,27.8
2017-10-15T11:22:21.132Z,27.89
2017-10-15T11:23:32.336Z,27.86
2017-10-15T11:24:42.921Z,27.83
2017-10-15T11:25:53.461Z,27.95
2017-10-15T11:27:03.986Z,27.9
2017-10-15T11:28:14.245Z,28.05
2017-10-15T11:29:24.868Z,28.17
2017-10-15T11:30:35.407Z,28.34
2017-10-15T11:31:45.973Z,28.49
2017-10-15T11:32:56.542Z,28.74
2017-10-15T11:34:07.080Z,28.69
2017-10-15T11:35:17.407Z,28.76
2017-10-15T11:36:28.158Z,28.79
2017-10-15T11:37:38.718Z,28.98
2017-10-15T11:38:49.026Z,28.98
2017-10-15T11:39:59.614Z,28.84
2017-10-15T11:41:10.168Z,28.79
2017-10-15T11:42:20.766Z,28.72
2017-10-15T11:43:31.311Z,28.5
2017-10-15T11:44:42.083Z,28.35
2017-10-15T11:45:52.645Z,28.02
2017-10-15T11:47:03.315Z,27.79
2017-10-15T11:48:13.831Z,27.67
2017-10-15T11:49:24.378Z,27.14
2017-10-15T11:50:34.607Z,26.8
2017-10-15T11:51:45.136Z,26.48
2017-10-15T11:52:55.038Z,26.3
2017-10-15T11:54:05.256Z,26.21
2017-10-15T11:55:15.959Z,26.11
2017-10-15T11:56:27.561Z,26.22
2017-10-15T11:57:38.103Z,26.4
2017-10-15T11:58:48.753Z,26.46
2017-10-15T11:59:59.300Z,26.67
2017-10-15T12:01:09.895Z,26.56
2017-10-15T12:02:20.439Z,26.7
2017-10-15T12:03:31.131Z,26.77
2017-10-15T12:04:41.711Z,26.71
2017-10-15T12:05:51.973Z,26.48
2017-10-15T12:07:02.204Z,26.46
2017-10-15T12:08:12.781Z,26.36
2017-10-15T12:09:23.554Z,26.25
2017-10-15T12:10:34.763Z,26.15
2017-10-15T12:11:45.664Z,26.04
2017-10-15T12:12:56.271Z,26.19
2017-10-15T12:14:07.163Z,26.27
2017-10-15T12:15:17.521Z,26.39
2017-10-15T12:16:28.360Z,26.39
2017-10-15T12:17:38.521Z,26.55
2017-10-15T12:18:48.844Z,26.74
2017-10-15T12:19:59.363Z,26.92
2017-10-15T12:21:10.692Z,26.99
2017-10-15T12:22:21.462Z,27.24
2017-10-15T12:23:32.167Z,27.5
2017-10-15T12:24:42.414Z,27.63
2017-10-15T12:25:52.968Z,27.64
2017-10-15T12:27:03.595Z,27.65
2017-10-15T12:28:15.222Z,27.39
2017-10-15T12:29:25.811Z,27.31
2017-10-15T12:30:36.403Z,27.19
2017-10-15T12:31:46.785Z,26.92
2017-10-15T12:32:57.499Z,26.93
2017-10-15T12:34:08.096Z,26.98
2017-10-15T12:35:18.352Z,26.9
2017-10-15T12:36:28.950Z,26.98
2017-10-15T12:37:39.533Z,26.85
2017-10-15T12:38:50.206Z,26.89
2017-10-15T12:40:00.753Z,26.82
2017-10-15T12:41:11.164Z,26.8
2017-10-15T12:42:21.560Z,26.8
2017-10-15T12:43:33.124Z,26.59
2017-10-15T12:44:44.055Z,26.56
2017-10-15T12:45:54.628Z,26.62
2017-10-15T12:47:04.850Z,26.37
2017-10-15T12:48:15.508Z,26.25
2017-10-15T12:49:25.419Z,25.93
2017-10-15T12:50:36.093Z,25.73
2017-10-15T12:51:46.373Z,25.68
2017-10-15T12:52:57.947Z,25.49
2017-10-15T12:54:08.579Z,25.56
2017-10-15T12:55:19.228Z,25.49
2017-10-15T12:56:29.886Z,25.46
2017-10-15T12:57:40.506Z,25.54
2017-10-15T12:58:51.181Z,25.64
2017-10-15T13:00:01.801Z,25.49
2017-10-15T13:01:12.471Z,25.34
2017-10-15T13:02:23.263Z,25.25
2017-10-15T13:03:33.952Z,25.15
2017-10-15T13:04:43.897Z,25.06
2017-10-15T13:05:54.540Z,25.03
2017-10-15T13:07:04.787Z,24.97
2017-10-15T13:08:15.366Z,24.9
2017-10-15T13:09:25.503Z,24.78
2017-10-15T13:10:36.052Z,24.67
2017-10-15T13:11:46.596Z,24.5
2017-10-15T13:12:57.219Z,24.31
2017-10-15T13:14:08.814Z,24.25
2017-10-15T13:15:20.409Z,24.29
2017-10-15T13:16:31.048Z,24.25
2017-10-15T13:17:42.620Z,24.13
2017-10-15T13:18:53.231Z,24.05
2017-10-15T13:20:03.977Z,24.01
2017-10-15T13:21:14.355Z,24
2017-10-15T13:22:25.194Z,23.91
2017-10-15T13:23:35.473Z,23.73
2017-10-15T13:24:46.110Z,23.73
2017-10-15T13:25:56.463Z,23.76
2017-10-15T13:27:07.069Z,23.7
2017-10-15T13:28:17.637Z,23.63
2017-10-15T13:29:28.255Z,23.75
2017-10-15T13:30:38.826Z,23.6
2017-10-15T13:31:49.099Z,23.53
2017-10-15T13:32:59.492Z,23.39
2017-10-15T13:34:09.827Z,23.31
2017-10-15T13:35:20.523Z,23.25
2017-10-15T13:36:30.127Z,23.13
2017-10-15T13:37:40.524Z,23.05
2017-10-15T13:38:51.153Z,23.06
2017-10-15T13:40:01.774Z,23.01
2017-10-15T13:41:12.446Z,22.9
2017-10-15T13:42:23.098Z,22.83
2017-10-15T13:43:33.452Z,22.75
2017-10-15T13:44:43.730Z,22.7
2017-10-15T13:45:54.325Z,22.76
2017-10-15T13:47:04.892Z,22.68
2017-10-15T13:48:15.194Z,22.65
2017-10-15T13:49:25.793Z,22.58
2017-10-15T13:50:36.713Z,22.58
2017-10-15T13:51:47.255Z,22.5
2017-10-15T13:52:57.600Z,22.49
2017-10-15T13:54:08.187Z,22.48
2017-10-15T13:55:18.395Z,22.42
2017-10-15T13:56:27.900Z,22.39
2017-10-15T13:57:39.491Z,22.52
2017-10-15T13:58:50.074Z,22.57
2017-10-15T14:00:01.231Z,22.6
2017-10-15T14:01:11.871Z,22.55
2017-10-15T14:02:22.541Z,22.58
2017-10-15T14:03:33.039Z,22.43
2017-10-15T14:04:43.689Z,22.43
2017-10-15T14:05:55.299Z,22.33
2017-10-15T14:07:05.918Z,22.38
2017-10-15T14:08:16.053Z,22.33
2017-10-15T14:09:27.611Z,22.26
2017-10-15T14:10:38.237Z,22.26
2017-10-15T14:11:48.806Z,22.24
2017-10-15T14:12:58.372Z,22.24
2017-10-15T14:14:08.920Z,22.21
2017-10-15T14:15:19.449Z,22.24
2017-10-15T14:16:29.695Z,22.15
2017-10-15T14:17:40.455Z,22.24
2017-10-15T14:18:51.079Z,22.2
2017-10-15T14:20:01.735Z,22.34
2017-10-15T14:21:12.299Z,22.21
2017-10-15T14:22:22.856Z,22.24
2017-10-15T14:23:33.423Z,22.21
2017-10-15T14:24:43.982Z,22.18
2017-10-15T14:25:54.554Z,22.2
2017-10-15T14:27:04.781Z,22.15
2017-10-15T14:28:15.387Z,22.15
2017-10-15T14:29:26.001Z,22.06
2017-10-15T14:30:36.645Z,22.13
2017-10-15T14:31:47.235Z,22.03
2017-10-15T14:32:57.901Z,22.02
2017-10-15T14:34:08.444Z,21.96
2017-10-15T14:35:18.661Z,21.93
2017-10-15T14:36:29.245Z,21.88
2017-10-15T14:37:39.833Z,21.9
2017-10-15T14:38:50.564Z,21.83
2017-10-15T14:40:00.763Z,21.86
2017-10-15T14:41:11.088Z,21.86
2017-10-15T14:42:21.635Z,21.79
2017-10-15T14:43:33.187Z,21.65
2017-10-15T14:44:43.741Z,21.61
2017-10-15T14:45:54.310Z,21.58
2017-10-15T14:47:04.904Z,21.57
2017-10-15T14:48:15.435Z,21.66
2017-10-15T14:49:26.106Z,21.61
2017-10-15T14:50:36.649Z,21.61
2017-10-15T14:51:47.201Z,21.58
2017-10-15T14:52:57.769Z,21.57
2017-10-15T14:54:08.322Z,21.57
2017-10-15T14:55:18.940Z,21.56
2017-10-15T14:56:29.553Z,21.65
2017-10-15T14:57:39.790Z,21.65
2017-10-15T14:58:50.407Z,21.58
2017-10-15T15:00:01.181Z,21.57
2017-10-15T15:01:11.948Z,21.49
2017-10-15T15:02:22.269Z,21.4
2017-10-15T15:03:32.841Z,21.4
2017-10-15T15:04:43.166Z,21.43
2017-10-15T15:05:53.089Z,21.38
2017-10-15T15:07:03.728Z,21.33
2017-10-15T15:08:13.663Z,21.23
2017-10-15T15:09:23.996Z,21.19
2017-10-15T15:10:34.505Z,21.13
2017-10-15T15:11:45.030Z,21.09
2017-10-15T15:12:55.639Z,21.12
2017-10-15T15:14:06.214Z,21.09
2017-10-15T15:15:16.786Z,20.97
2017-10-15T15:16:27.382Z,20.96